Terminal Aerodrome Forecast
Issued by NWS Bismarck, ND

Home | Current Version | Previous Version | Graphics & Text | Print | Product List | Glossary On
Versions: 1 2 3 4 5 6 7 8 9 10 11 12 13 14 15 16 17 18 19 20 21 22
000
FTUS43 KBIS 201723
TAFBIS
TAF
KBIS 201723Z 2018/2118 23004KT P6SM VCSH BKN060
     FM202100 33005KT P6SM BKN060
     FM210300 36008KT P6SM SCT200
     FM210900 02008KT P6SM BKN110
     FM211700 05007KT P6SM BKN060=

USA.gov is the U.S. government's official web portal to all federal, state and local government web resources and services.